EYSA

Šiauliai International Airport

Šiauliai, Lithuania
METAR EYSA 170250Z 19003KT 8000 NSC 06/05 Q1022 BLU TEMPO 6000 NSC WHT
Observed Flight Rules
Oct-17 @ 02:50 UTC (20 minutes ago) Marginal Visual Flight Rules
Wind Visibility Clouds
190° at 3 knots 7,998 meters
  • Clear skies
Temperatures Readings
Current 6°C / 43°F
Dewpoint 5°C / 41°F
Humidity 93%
Altimeter 30.18" Hg
Pressure 1022 hPa
Elevation 135
METAR EYSA 170250Z 19003KT 8000 NSC 06/05 Q1022 BLU TEMPO 6000 NSC WHT
Observed Flight Rules
Oct-17 @ 02:50 UTC
(20 minutes ago)
MVFR
Wind Visibility
190° at 3 knots 7,998 meters
Clouds
  • Clear skies
Temperature Dewpoint
6°C / 43°F 5°C / 41°F
Humidity Altimeter Pressure
93% 30.18" Hg 1022 hPa